sensor_id;sensor_type;location;lat;lon;timestamp;P1;durP1;ratioP1;P2;durP2;ratioP2
8474;SDS011;4274;52.012;8.448;2023-08-17T00:02:12;47.93;;;3.57;;
8474;SDS011;4274;52.012;8.448;2023-08-17T00:04:38;46.43;;;3.63;;
8474;SDS011;4274;52.012;8.448;2023-08-17T00:07:04;45.27;;;3.50;;
8474;SDS011;4274;52.012;8.448;2023-08-17T00:09:31;48.17;;;3.50;;
8474;SDS011;4274;52.012;8.448;2023-08-17T00:11:56;50.00;;;4.00;;
8474;SDS011;4274;52.012;8.448;2023-08-17T00:14:22;48.47;;;4.37;;
8474;SDS011;4274;52.012;8.448;2023-08-17T00:16:49;56.90;;;4.17;;
8474;SDS011;4274;52.012;8.448;2023-08-17T00:19:15;52.83;;;4.10;;
8474;SDS011;4274;52.012;8.448;2023-08-17T00:21:41;48.07;;;3.90;;
8474;SDS011;4274;52.012;8.448;2023-08-17T00:24:07;51.37;;;4.10;;
8474;SDS011;4274;52.012;8.448;2023-08-17T00:26:33;52.47;;;4.00;;
8474;SDS011;4274;52.012;8.448;2023-08-17T00:28:58;49.27;;;4.23;;
8474;SDS011;4274;52.012;8.448;2023-08-17T00:31:24;47.10;;;4.10;;
8474;SDS011;4274;52.012;8.448;2023-08-17T00:33:49;50.33;;;3.70;;
8474;SDS011;4274;52.012;8.448;2023-08-17T00:36:15;49.17;;;4.70;;
8474;SDS011;4274;52.012;8.448;2023-08-17T00:38:40;51.90;;;4.67;;
8474;SDS011;4274;52.012;8.448;2023-08-17T00:41:06;48.90;;;5.10;;
8474;SDS011;4274;52.012;8.448;2023-08-17T00:43:32;48.97;;;4.73;;
8474;SDS011;4274;52.012;8.448;2023-08-17T00:45:57;47.83;;;4.60;;
8474;SDS011;4274;52.012;8.448;2023-08-17T00:48:23;57.73;;;5.30;;
8474;SDS011;4274;52.012;8.448;2023-08-17T00:50:49;49.83;;;5.50;;
8474;SDS011;4274;52.012;8.448;2023-08-17T00:53:17;46.67;;;5.13;;
8474;SDS011;4274;52.012;8.448;2023-08-17T00:55:44;50.80;;;5.40;;
8474;SDS011;4274;52.012;8.448;2023-08-17T00:58:10;46.87;;;5.43;;
8474;SDS011;4274;52.012;8.448;2023-08-17T01:00:35;54.30;;;5.87;;
8474;SDS011;4274;52.012;8.448;2023-08-17T01:03:01;46.77;;;4.90;;
8474;SDS011;4274;52.012;8.448;2023-08-17T01:05:27;51.00;;;5.63;;
8474;SDS011;4274;52.012;8.448;2023-08-17T01:07:54;48.07;;;5.47;;
8474;SDS011;4274;52.012;8.448;2023-08-17T01:10:20;50.07;;;5.73;;
8474;SDS011;4274;52.012;8.448;2023-08-17T01:12:52;49.73;;;6.03;;
8474;SDS011;4274;52.012;8.448;2023-08-17T01:15:27;49.90;;;5.77;;
8474;SDS011;4274;52.012;8.448;2023-08-17T01:18:04;48.00;;;5.50;;
8474;SDS011;4274;52.012;8.448;2023-08-17T01:20:47;51.23;;;6.00;;
8474;SDS011;4274;52.012;8.448;2023-08-17T01:23:13;51.93;;;5.97;;
8474;SDS011;4274;52.012;8.448;2023-08-17T01:25:39;47.50;;;5.87;;
8474;SDS011;4274;52.012;8.448;2023-08-17T01:28:04;48.40;;;5.80;;
8474;SDS011;4274;52.012;8.448;2023-08-17T01:30:36;55.10;;;5.77;;
8474;SDS011;4274;52.012;8.448;2023-08-17T01:33:09;47.77;;;5.60;;
8474;SDS011;4274;52.012;8.448;2023-08-17T01:35:46;50.27;;;5.80;;
8474;SDS011;4274;52.012;8.448;2023-08-17T01:38:17;51.80;;;6.00;;
8474;SDS011;4274;52.012;8.448;2023-08-17T01:40:45;51.50;;;5.73;;
8474;SDS011;4274;52.012;8.448;2023-08-17T01:43:13;47.40;;;5.73;;
8474;SDS011;4274;52.012;8.448;2023-08-17T01:45:41;52.80;;;5.40;;
8474;SDS011;4274;52.012;8.448;2023-08-17T01:48:06;48.30;;;5.63;;
8474;SDS011;4274;52.012;8.448;2023-08-17T01:50:32;55.57;;;6.73;;
8474;SDS011;4274;52.012;8.448;2023-08-17T01:52:57;57.90;;;5.57;;
8474;SDS011;4274;52.012;8.448;2023-08-17T01:55:23;47.57;;;5.40;;
8474;SDS011;4274;52.012;8.448;2023-08-17T01:57:49;51.87;;;6.57;;
8474;SDS011;4274;52.012;8.448;2023-08-17T02:00:14;49.03;;;5.40;;
8474;SDS011;4274;52.012;8.448;2023-08-17T02:02:40;54.97;;;6.17;;
8474;SDS011;4274;52.012;8.448;2023-08-17T02:05:06;54.10;;;5.90;;
8474;SDS011;4274;52.012;8.448;2023-08-17T02:07:32;60.10;;;7.17;;
8474;SDS011;4274;52.012;8.448;2023-08-17T02:09:58;48.83;;;6.37;;
8474;SDS011;4274;52.012;8.448;2023-08-17T02:12:24;55.00;;;6.53;;
8474;SDS011;4274;52.012;8.448;2023-08-17T02:14:49;50.17;;;6.30;;
8474;SDS011;4274;52.012;8.448;2023-08-17T02:17:15;48.60;;;5.80;;
8474;SDS011;4274;52.012;8.448;2023-08-17T02:19:44;53.07;;;6.60;;
8474;SDS011;4274;52.012;8.448;2023-08-17T02:22:09;47.70;;;6.27;;
8474;SDS011;4274;52.012;8.448;2023-08-17T02:24:35;54.80;;;6.90;;
8474;SDS011;4274;52.012;8.448;2023-08-17T02:27:01;49.67;;;6.53;;
8474;SDS011;4274;52.012;8.448;2023-08-17T02:29:26;50.77;;;7.10;;
8474;SDS011;4274;52.012;8.448;2023-08-17T02:31:52;49.83;;;5.70;;
8474;SDS011;4274;52.012;8.448;2023-08-17T02:34:17;58.30;;;6.80;;
8474;SDS011;4274;52.012;8.448;2023-08-17T02:36:43;47.63;;;6.03;;
8474;SDS011;4274;52.012;8.448;2023-08-17T02:39:08;52.87;;;6.33;;
8474;SDS011;4274;52.012;8.448;2023-08-17T02:41:34;51.93;;;6.77;;
8474;SDS011;4274;52.012;8.448;2023-08-17T02:44:00;50.30;;;7.00;;
8474;SDS011;4274;52.012;8.448;2023-08-17T02:46:26;68.07;;;6.00;;
8474;SDS011;4274;52.012;8.448;2023-08-17T02:48:52;57.27;;;7.73;;
8474;SDS011;4274;52.012;8.448;2023-08-17T02:51:18;56.07;;;6.73;;
8474;SDS011;4274;52.012;8.448;2023-08-17T02:53:43;51.33;;;7.00;;
8474;SDS011;4274;52.012;8.448;2023-08-17T02:56:09;55.17;;;7.70;;
8474;SDS011;4274;52.012;8.448;2023-08-17T02:58:38;55.27;;;7.63;;
8474;SDS011;4274;52.012;8.448;2023-08-17T03:01:07;47.97;;;6.60;;
8474;SDS011;4274;52.012;8.448;2023-08-17T03:03:33;54.53;;;7.30;;
8474;SDS011;4274;52.012;8.448;2023-08-17T03:06:00;52.93;;;7.17;;
8474;SDS011;4274;52.012;8.448;2023-08-17T03:08:26;58.23;;;7.97;;
8474;SDS011;4274;52.012;8.448;2023-08-17T03:10:51;49.97;;;6.70;;
8474;SDS011;4274;52.012;8.448;2023-08-17T03:13:17;52.80;;;7.40;;
8474;SDS011;4274;52.012;8.448;2023-08-17T03:15:42;54.93;;;7.30;;
8474;SDS011;4274;52.012;8.448;2023-08-17T03:18:08;63.90;;;7.50;;
8474;SDS011;4274;52.012;8.448;2023-08-17T03:20:34;55.97;;;8.33;;
8474;SDS011;4274;52.012;8.448;2023-08-17T03:22:59;55.20;;;7.90;;
8474;SDS011;4274;52.012;8.448;2023-08-17T03:25:25;50.50;;;7.50;;
8474;SDS011;4274;52.012;8.448;2023-08-17T03:27:50;49.73;;;7.80;;
8474;SDS011;4274;52.012;8.448;2023-08-17T03:30:16;50.97;;;8.13;;
8474;SDS011;4274;52.012;8.448;2023-08-17T03:32:42;51.67;;;8.37;;
8474;SDS011;4274;52.012;8.448;2023-08-17T03:35:07;57.57;;;9.17;;
8474;SDS011;4274;52.012;8.448;2023-08-17T03:37:33;57.90;;;9.30;;
8474;SDS011;4274;52.012;8.448;2023-08-17T03:39:58;50.27;;;8.73;;
8474;SDS011;4274;52.012;8.448;2023-08-17T03:42:25;51.57;;;8.50;;
8474;SDS011;4274;52.012;8.448;2023-08-17T03:44:51;54.93;;;8.20;;
8474;SDS011;4274;52.012;8.448;2023-08-17T03:47:17;52.50;;;9.47;;
8474;SDS011;4274;52.012;8.448;2023-08-17T03:49:43;57.43;;;8.80;;
8474;SDS011;4274;52.012;8.448;2023-08-17T03:52:08;52.50;;;9.80;;
8474;SDS011;4274;52.012;8.448;2023-08-17T03:54:35;55.13;;;8.87;;
8474;SDS011;4274;52.012;8.448;2023-08-17T03:57:01;55.60;;;9.17;;
8474;SDS011;4274;52.012;8.448;2023-08-17T03:59:26;55.53;;;9.67;;
8474;SDS011;4274;52.012;8.448;2023-08-17T04:01:52;53.13;;;9.00;;
8474;SDS011;4274;52.012;8.448;2023-08-17T04:04:17;57.60;;;9.10;;
8474;SDS011;4274;52.012;8.448;2023-08-17T04:06:43;52.17;;;9.63;;
8474;SDS011;4274;52.012;8.448;2023-08-17T04:09:08;51.73;;;9.50;;
8474;SDS011;4274;52.012;8.448;2023-08-17T04:11:34;55.10;;;10.53;;
8474;SDS011;4274;52.012;8.448;2023-08-17T04:14:01;59.30;;;11.43;;
8474;SDS011;4274;52.012;8.448;2023-08-17T04:16:27;60.10;;;10.10;;
8474;SDS011;4274;52.012;8.448;2023-08-17T04:18:53;61.70;;;10.10;;
8474;SDS011;4274;52.012;8.448;2023-08-17T04:21:18;63.30;;;10.80;;
8474;SDS011;4274;52.012;8.448;2023-08-17T04:23:45;60.00;;;9.47;;
8474;SDS011;4274;52.012;8.448;2023-08-17T04:26:11;61.17;;;10.87;;
8474;SDS011;4274;52.012;8.448;2023-08-17T04:28:37;53.30;;;9.83;;
8474;SDS011;4274;52.012;8.448;2023-08-17T04:31:02;55.03;;;9.53;;
8474;SDS011;4274;52.012;8.448;2023-08-17T04:33:28;60.00;;;10.23;;
8474;SDS011;4274;52.012;8.448;2023-08-17T04:35:53;54.03;;;8.93;;
8474;SDS011;4274;52.012;8.448;2023-08-17T04:38:19;59.07;;;10.10;;
8474;SDS011;4274;52.012;8.448;2023-08-17T04:40:45;51.87;;;9.23;;
8474;SDS011;4274;52.012;8.448;2023-08-17T04:43:11;51.03;;;8.10;;
8474;SDS011;4274;52.012;8.448;2023-08-17T04:45:37;51.80;;;8.20;;
8474;SDS011;4274;52.012;8.448;2023-08-17T04:48:03;56.60;;;9.30;;
8474;SDS011;4274;52.012;8.448;2023-08-17T04:50:29;53.30;;;8.83;;
8474;SDS011;4274;52.012;8.448;2023-08-17T04:52:54;58.90;;;7.87;;
8474;SDS011;4274;52.012;8.448;2023-08-17T04:55:20;56.57;;;8.93;;
8474;SDS011;4274;52.012;8.448;2023-08-17T04:57:46;56.00;;;8.70;;
8474;SDS011;4274;52.012;8.448;2023-08-17T05:00:12;66.17;;;8.40;;
8474;SDS011;4274;52.012;8.448;2023-08-17T05:02:38;51.93;;;8.57;;
8474;SDS011;4274;52.012;8.448;2023-08-17T05:05:05;50.07;;;7.60;;
8474;SDS011;4274;52.012;8.448;2023-08-17T05:07:32;48.80;;;7.70;;
8474;SDS011;4274;52.012;8.448;2023-08-17T05:09:58;56.67;;;9.13;;
8474;SDS011;4274;52.012;8.448;2023-08-17T05:12:23;51.90;;;8.73;;
8474;SDS011;4274;52.012;8.448;2023-08-17T05:14:49;58.43;;;8.40;;
8474;SDS011;4274;52.012;8.448;2023-08-17T05:17:14;54.07;;;8.53;;
8474;SDS011;4274;52.012;8.448;2023-08-17T05:19:40;53.93;;;9.30;;
8474;SDS011;4274;52.012;8.448;2023-08-17T05:22:09;55.37;;;8.87;;
8474;SDS011;4274;52.012;8.448;2023-08-17T05:24:36;52.30;;;8.57;;
8474;SDS011;4274;52.012;8.448;2023-08-17T05:27:02;50.97;;;8.70;;
8474;SDS011;4274;52.012;8.448;2023-08-17T05:29:27;52.43;;;8.50;;
8474;SDS011;4274;52.012;8.448;2023-08-17T05:31:53;59.77;;;8.90;;
8474;SDS011;4274;52.012;8.448;2023-08-17T05:34:18;48.97;;;8.70;;
8474;SDS011;4274;52.012;8.448;2023-08-17T05:36:44;57.60;;;8.73;;
8474;SDS011;4274;52.012;8.448;2023-08-17T05:39:10;53.63;;;9.50;;
8474;SDS011;4274;52.012;8.448;2023-08-17T05:41:35;52.17;;;8.87;;
8474;SDS011;4274;52.012;8.448;2023-08-17T05:44:01;52.80;;;8.87;;
8474;SDS011;4274;52.012;8.448;2023-08-17T05:46:27;63.33;;;9.00;;
8474;SDS011;4274;52.012;8.448;2023-08-17T05:48:52;54.90;;;9.20;;
8474;SDS011;4274;52.012;8.448;2023-08-17T05:51:18;55.43;;;8.90;;
8474;SDS011;4274;52.012;8.448;2023-08-17T05:53:44;59.20;;;8.27;;
8474;SDS011;4274;52.012;8.448;2023-08-17T05:56:09;49.77;;;8.40;;
8474;SDS011;4274;52.012;8.448;2023-08-17T05:58:35;56.10;;;7.93;;
8474;SDS011;4274;52.012;8.448;2023-08-17T06:01:07;51.57;;;7.93;;
8474;SDS011;4274;52.012;8.448;2023-08-17T06:03:34;59.47;;;10.50;;
8474;SDS011;4274;52.012;8.448;2023-08-17T06:06:00;50.03;;;8.43;;
8474;SDS011;4274;52.012;8.448;2023-08-17T06:08:25;59.53;;;8.40;;
8474;SDS011;4274;52.012;8.448;2023-08-17T06:10:51;50.87;;;8.10;;
8474;SDS011;4274;52.012;8.448;2023-08-17T06:13:16;53.20;;;8.20;;
8474;SDS011;4274;52.012;8.448;2023-08-17T06:15:42;59.20;;;9.10;;
8474;SDS011;4274;52.012;8.448;2023-08-17T06:18:07;57.77;;;9.60;;
8474;SDS011;4274;52.012;8.448;2023-08-17T06:20:33;60.50;;;8.70;;
8474;SDS011;4274;52.012;8.448;2023-08-17T06:22:58;57.00;;;9.40;;
8474;SDS011;4274;52.012;8.448;2023-08-17T06:25:24;58.73;;;9.87;;
8474;SDS011;4274;52.012;8.448;2023-08-17T06:27:50;58.80;;;9.50;;
8474;SDS011;4274;52.012;8.448;2023-08-17T06:30:16;56.30;;;9.07;;
8474;SDS011;4274;52.012;8.448;2023-08-17T06:32:42;53.53;;;9.40;;
8474;SDS011;4274;52.012;8.448;2023-08-17T06:35:08;58.37;;;9.30;;
8474;SDS011;4274;52.012;8.448;2023-08-17T06:37:34;56.53;;;10.53;;
8474;SDS011;4274;52.012;8.448;2023-08-17T06:40:00;61.60;;;9.60;;
8474;SDS011;4274;52.012;8.448;2023-08-17T06:42:27;54.67;;;9.50;;
8474;SDS011;4274;52.012;8.448;2023-08-17T06:44:53;54.03;;;9.03;;
8474;SDS011;4274;52.012;8.448;2023-08-17T06:47:18;60.00;;;9.97;;
8474;SDS011;4274;52.012;8.448;2023-08-17T06:49:44;55.77;;;10.20;;
8474;SDS011;4274;52.012;8.448;2023-08-17T06:52:09;58.03;;;10.70;;
8474;SDS011;4274;52.012;8.448;2023-08-17T06:54:35;57.20;;;10.17;;
8474;SDS011;4274;52.012;8.448;2023-08-17T06:57:00;59.83;;;9.83;;
8474;SDS011;4274;52.012;8.448;2023-08-17T06:59:26;58.67;;;10.20;;
8474;SDS011;4274;52.012;8.448;2023-08-17T07:01:52;61.43;;;10.00;;
8474;SDS011;4274;52.012;8.448;2023-08-17T07:04:17;62.33;;;10.30;;
8474;SDS011;4274;52.012;8.448;2023-08-17T07:06:43;67.40;;;10.73;;
8474;SDS011;4274;52.012;8.448;2023-08-17T07:09:09;58.97;;;10.30;;
8474;SDS011;4274;52.012;8.448;2023-08-17T07:11:37;65.60;;;10.27;;
8474;SDS011;4274;52.012;8.448;2023-08-17T07:14:03;54.80;;;10.30;;
8474;SDS011;4274;52.012;8.448;2023-08-17T07:16:31;54.43;;;10.57;;
8474;SDS011;4274;52.012;8.448;2023-08-17T07:18:57;56.57;;;10.87;;
8474;SDS011;4274;52.012;8.448;2023-08-17T07:21:22;62.83;;;10.40;;
8474;SDS011;4274;52.012;8.448;2023-08-17T07:23:50;63.73;;;11.20;;
8474;SDS011;4274;52.012;8.448;2023-08-17T07:26:16;56.47;;;10.10;;
8474;SDS011;4274;52.012;8.448;2023-08-17T07:28:44;57.80;;;11.30;;
8474;SDS011;4274;52.012;8.448;2023-08-17T07:31:09;65.03;;;11.53;;
8474;SDS011;4274;52.012;8.448;2023-08-17T07:33:35;57.03;;;10.50;;
8474;SDS011;4274;52.012;8.448;2023-08-17T07:36:01;62.43;;;11.20;;
8474;SDS011;4274;52.012;8.448;2023-08-17T07:38:27;64.93;;;11.23;;
8474;SDS011;4274;52.012;8.448;2023-08-17T07:40:52;58.00;;;10.80;;
8474;SDS011;4274;52.012;8.448;2023-08-17T07:43:20;56.30;;;10.80;;
8474;SDS011;4274;52.012;8.448;2023-08-17T07:45:45;55.47;;;10.70;;
8474;SDS011;4274;52.012;8.448;2023-08-17T07:48:11;64.70;;;11.60;;
8474;SDS011;4274;52.012;8.448;2023-08-17T07:50:37;60.40;;;11.23;;
8474;SDS011;4274;52.012;8.448;2023-08-17T07:53:02;58.30;;;11.23;;
8474;SDS011;4274;52.012;8.448;2023-08-17T07:55:28;54.47;;;9.90;;
8474;SDS011;4274;52.012;8.448;2023-08-17T07:57:53;54.43;;;9.27;;
8474;SDS011;4274;52.012;8.448;2023-08-17T08:00:19;54.40;;;9.63;;
8474;SDS011;4274;52.012;8.448;2023-08-17T08:02:45;54.13;;;10.13;;
8474;SDS011;4274;52.012;8.448;2023-08-17T08:05:11;58.97;;;10.77;;
8474;SDS011;4274;52.012;8.448;2023-08-17T08:07:39;58.10;;;9.80;;
8474;SDS011;4274;52.012;8.448;2023-08-17T08:10:04;54.20;;;9.70;;
8474;SDS011;4274;52.012;8.448;2023-08-17T08:12:30;56.10;;;9.90;;
8474;SDS011;4274;52.012;8.448;2023-08-17T08:14:56;53.87;;;9.30;;
8474;SDS011;4274;52.012;8.448;2023-08-17T08:17:21;53.50;;;9.33;;
8474;SDS011;4274;52.012;8.448;2023-08-17T08:19:47;60.20;;;9.80;;
8474;SDS011;4274;52.012;8.448;2023-08-17T08:22:12;54.87;;;8.83;;
8474;SDS011;4274;52.012;8.448;2023-08-17T08:24:38;62.93;;;11.10;;
8474;SDS011;4274;52.012;8.448;2023-08-17T08:27:06;53.77;;;9.43;;
8474;SDS011;4274;52.012;8.448;2023-08-17T08:29:31;54.50;;;9.17;;
8474;SDS011;4274;52.012;8.448;2023-08-17T08:31:57;55.03;;;9.03;;
8474;SDS011;4274;52.012;8.448;2023-08-17T08:34:24;54.43;;;9.67;;
8474;SDS011;4274;52.012;8.448;2023-08-17T08:36:50;53.07;;;8.70;;
8474;SDS011;4274;52.012;8.448;2023-08-17T08:39:16;53.80;;;10.20;;
8474;SDS011;4274;52.012;8.448;2023-08-17T08:41:41;56.53;;;9.83;;
8474;SDS011;4274;52.012;8.448;2023-08-17T08:44:07;51.53;;;8.90;;
8474;SDS011;4274;52.012;8.448;2023-08-17T08:46:32;62.47;;;8.90;;
8474;SDS011;4274;52.012;8.448;2023-08-17T08:48:59;55.07;;;9.47;;
8474;SDS011;4274;52.012;8.448;2023-08-17T08:51:26;52.77;;;9.10;;
8474;SDS011;4274;52.012;8.448;2023-08-17T08:53:57;56.20;;;9.03;;
8474;SDS011;4274;52.012;8.448;2023-08-17T08:56:27;54.50;;;10.33;;
8474;SDS011;4274;52.012;8.448;2023-08-17T08:58:56;55.00;;;9.80;;
8474;SDS011;4274;52.012;8.448;2023-08-17T09:01:26;56.37;;;9.40;;
8474;SDS011;4274;52.012;8.448;2023-08-17T09:03:51;60.57;;;9.73;;
8474;SDS011;4274;52.012;8.448;2023-08-17T09:06:18;53.90;;;9.80;;
8474;SDS011;4274;52.012;8.448;2023-08-17T09:08:45;55.50;;;10.17;;
8474;SDS011;4274;52.012;8.448;2023-08-17T09:11:13;57.40;;;9.90;;
8474;SDS011;4274;52.012;8.448;2023-08-17T09:13:38;54.80;;;9.07;;
8474;SDS011;4274;52.012;8.448;2023-08-17T09:16:04;53.57;;;9.50;;
8474;SDS011;4274;52.012;8.448;2023-08-17T09:18:29;52.23;;;9.40;;
8474;SDS011;4274;52.012;8.448;2023-08-17T09:20:56;60.90;;;9.77;;
8474;SDS011;4274;52.012;8.448;2023-08-17T09:23:21;50.43;;;8.47;;
8474;SDS011;4274;52.012;8.448;2023-08-17T09:25:48;55.70;;;9.37;;
8474;SDS011;4274;52.012;8.448;2023-08-17T09:28:17;55.83;;;9.10;;
8474;SDS011;4274;52.012;8.448;2023-08-17T09:30:50;53.83;;;10.97;;
8474;SDS011;4274;52.012;8.448;2023-08-17T09:33:23;50.47;;;8.70;;
8474;SDS011;4274;52.012;8.448;2023-08-17T09:35:54;50.20;;;8.30;;
8474;SDS011;4274;52.012;8.448;2023-08-17T09:38:21;55.53;;;8.23;;
8474;SDS011;4274;52.012;8.448;2023-08-17T09:40:47;53.50;;;8.87;;
8474;SDS011;4274;52.012;8.448;2023-08-17T09:43:16;48.87;;;7.13;;
8474;SDS011;4274;52.012;8.448;2023-08-17T09:45:43;52.00;;;7.80;;
8474;SDS011;4274;52.012;8.448;2023-08-17T09:48:11;50.80;;;8.07;;
8474;SDS011;4274;52.012;8.448;2023-08-17T09:50:41;50.77;;;8.20;;
8474;SDS011;4274;52.012;8.448;2023-08-17T09:53:07;56.10;;;8.30;;
8474;SDS011;4274;52.012;8.448;2023-08-17T09:55:36;56.50;;;7.50;;
8474;SDS011;4274;52.012;8.448;2023-08-17T09:58:04;53.33;;;8.00;;
8474;SDS011;4274;52.012;8.448;2023-08-17T10:00:29;51.43;;;8.03;;
8474;SDS011;4274;52.012;8.448;2023-08-17T10:02:56;52.47;;;8.93;;
8474;SDS011;4274;52.012;8.448;2023-08-17T10:05:26;51.07;;;7.77;;
8474;SDS011;4274;52.012;8.448;2023-08-17T10:07:56;54.77;;;9.30;;
8474;SDS011;4274;52.012;8.448;2023-08-17T10:10:25;55.33;;;8.93;;
8474;SDS011;4274;52.012;8.448;2023-08-17T10:13:00;56.83;;;9.53;;
8474;SDS011;4274;52.012;8.448;2023-08-17T10:15:51;59.70;;;9.33;;
8474;SDS011;4274;52.012;8.448;2023-08-17T10:21:06;57.30;;;9.37;;
8474;SDS011;4274;52.012;8.448;2023-08-17T10:23:38;51.70;;;9.03;;
8474;SDS011;4274;52.012;8.448;2023-08-17T10:26:04;54.47;;;9.80;;
8474;SDS011;4274;52.012;8.448;2023-08-17T10:28:32;55.73;;;10.13;;
8474;SDS011;4274;52.012;8.448;2023-08-17T10:30:59;51.10;;;9.33;;
8474;SDS011;4274;52.012;8.448;2023-08-17T10:33:25;54.67;;;9.90;;
8474;SDS011;4274;52.012;8.448;2023-08-17T10:35:52;55.10;;;9.90;;
8474;SDS011;4274;52.012;8.448;2023-08-17T10:38:18;53.00;;;10.27;;
8474;SDS011;4274;52.012;8.448;2023-08-17T10:40:44;56.30;;;11.70;;
8474;SDS011;4274;52.012;8.448;2023-08-17T10:43:10;52.37;;;10.57;;
8474;SDS011;4274;52.012;8.448;2023-08-17T10:45:37;55.50;;;10.70;;
8474;SDS011;4274;52.012;8.448;2023-08-17T10:50:32;57.37;;;10.80;;
8474;SDS011;4274;52.012;8.448;2023-08-17T10:52:59;56.70;;;10.07;;
8474;SDS011;4274;52.012;8.448;2023-08-17T10:56:03;57.73;;;11.07;;
8474;SDS011;4274;52.012;8.448;2023-08-17T10:58:22;54.23;;;10.93;;
8474;SDS011;4274;52.012;8.448;2023-08-17T11:00:48;56.23;;;10.77;;
8474;SDS011;4274;52.012;8.448;2023-08-17T11:03:20;56.17;;;11.17;;
8474;SDS011;4274;52.012;8.448;2023-08-17T11:05:47;57.47;;;11.03;;
8474;SDS011;4274;52.012;8.448;2023-08-17T11:08:21;54.27;;;11.10;;
8474;SDS011;4274;52.012;8.448;2023-08-17T11:11:02;59.03;;;12.20;;
8474;SDS011;4274;52.012;8.448;2023-08-17T11:13:33;53.87;;;10.03;;
8474;SDS011;4274;52.012;8.448;2023-08-17T11:16:01;54.67;;;10.43;;
8474;SDS011;4274;52.012;8.448;2023-08-17T11:18:28;55.23;;;10.50;;
8474;SDS011;4274;52.012;8.448;2023-08-17T11:20:53;53.70;;;9.77;;
8474;SDS011;4274;52.012;8.448;2023-08-17T11:23:20;53.43;;;9.57;;
8474;SDS011;4274;52.012;8.448;2023-08-17T11:25:47;53.10;;;8.17;;
8474;SDS011;4274;52.012;8.448;2023-08-17T11:28:13;49.47;;;9.00;;
8474;SDS011;4274;52.012;8.448;2023-08-17T11:30:39;53.87;;;8.80;;
8474;SDS011;4274;52.012;8.448;2023-08-17T11:33:05;54.00;;;9.70;;
8474;SDS011;4274;52.012;8.448;2023-08-17T11:35:32;52.83;;;9.00;;
8474;SDS011;4274;52.012;8.448;2023-08-17T11:37:57;55.17;;;9.90;;
8474;SDS011;4274;52.012;8.448;2023-08-17T11:40:24;52.13;;;9.27;;
8474;SDS011;4274;52.012;8.448;2023-08-17T11:42:51;52.10;;;8.30;;
8474;SDS011;4274;52.012;8.448;2023-08-17T11:45:17;52.60;;;9.30;;
8474;SDS011;4274;52.012;8.448;2023-08-17T11:47:43;51.63;;;9.27;;
8474;SDS011;4274;52.012;8.448;2023-08-17T11:50:09;58.40;;;9.60;;
8474;SDS011;4274;52.012;8.448;2023-08-17T11:52:36;54.63;;;9.60;;
8474;SDS011;4274;52.012;8.448;2023-08-17T11:55:03;53.77;;;9.10;;
8474;SDS011;4274;52.012;8.448;2023-08-17T11:57:30;54.77;;;8.70;;
8474;SDS011;4274;52.012;8.448;2023-08-17T11:59:56;50.87;;;8.63;;
8474;SDS011;4274;52.012;8.448;2023-08-17T12:02:23;47.60;;;7.70;;
8474;SDS011;4274;52.012;8.448;2023-08-17T12:04:50;55.40;;;9.80;;
8474;SDS011;4274;52.012;8.448;2023-08-17T12:07:16;54.80;;;8.20;;
8474;SDS011;4274;52.012;8.448;2023-08-17T12:09:43;57.83;;;8.97;;
8474;SDS011;4274;52.012;8.448;2023-08-17T12:12:09;53.13;;;8.70;;
8474;SDS011;4274;52.012;8.448;2023-08-17T12:14:36;53.57;;;8.80;;
8474;SDS011;4274;52.012;8.448;2023-08-17T12:17:02;51.20;;;9.30;;
8474;SDS011;4274;52.012;8.448;2023-08-17T12:19:29;52.27;;;9.33;;
8474;SDS011;4274;52.012;8.448;2023-08-17T12:21:54;52.77;;;8.70;;
8474;SDS011;4274;52.012;8.448;2023-08-17T12:24:23;54.97;;;9.20;;
8474;SDS011;4274;52.012;8.448;2023-08-17T12:26:49;54.60;;;9.00;;
8474;SDS011;4274;52.012;8.448;2023-08-17T12:29:15;53.47;;;8.60;;
8474;SDS011;4274;52.012;8.448;2023-08-17T12:31:40;52.87;;;8.63;;
8474;SDS011;4274;52.012;8.448;2023-08-17T12:34:06;55.33;;;8.63;;
8474;SDS011;4274;52.012;8.448;2023-08-17T12:36:32;53.57;;;8.53;;
8474;SDS011;4274;52.012;8.448;2023-08-17T12:38:58;52.30;;;9.33;;
8474;SDS011;4274;52.012;8.448;2023-08-17T12:41:23;51.93;;;8.90;;
8474;SDS011;4274;52.012;8.448;2023-08-17T12:43:49;52.50;;;8.20;;
8474;SDS011;4274;52.012;8.448;2023-08-17T12:46:15;54.10;;;9.43;;
8474;SDS011;4274;52.012;8.448;2023-08-17T12:48:40;52.07;;;9.00;;
8474;SDS011;4274;52.012;8.448;2023-08-17T12:51:06;56.33;;;9.37;;
8474;SDS011;4274;52.012;8.448;2023-08-17T12:53:31;53.00;;;9.53;;
8474;SDS011;4274;52.012;8.448;2023-08-17T12:55:57;53.70;;;8.57;;
8474;SDS011;4274;52.012;8.448;2023-08-17T12:58:23;52.67;;;8.93;;
8474;SDS011;4274;52.012;8.448;2023-08-17T13:00:49;51.77;;;8.60;;
8474;SDS011;4274;52.012;8.448;2023-08-17T13:03:16;52.73;;;9.50;;
8474;SDS011;4274;52.012;8.448;2023-08-17T13:05:42;54.10;;;9.03;;
8474;SDS011;4274;52.012;8.448;2023-08-17T13:08:08;53.77;;;9.20;;
8474;SDS011;4274;52.012;8.448;2023-08-17T13:10:34;55.43;;;8.57;;
8474;SDS011;4274;52.012;8.448;2023-08-17T13:12:59;53.73;;;9.60;;
8474;SDS011;4274;52.012;8.448;2023-08-17T13:15:25;51.80;;;9.30;;
8474;SDS011;4274;52.012;8.448;2023-08-17T13:17:51;51.90;;;8.43;;
8474;SDS011;4274;52.012;8.448;2023-08-17T13:20:16;49.87;;;8.17;;
8474;SDS011;4274;52.012;8.448;2023-08-17T13:22:42;50.40;;;8.27;;
8474;SDS011;4274;52.012;8.448;2023-08-17T13:25:07;54.23;;;9.20;;
8474;SDS011;4274;52.012;8.448;2023-08-17T13:27:33;57.23;;;9.03;;
8474;SDS011;4274;52.012;8.448;2023-08-17T13:29:59;52.80;;;8.57;;
8474;SDS011;4274;52.012;8.448;2023-08-17T13:32:25;54.57;;;8.30;;
8474;SDS011;4274;52.012;8.448;2023-08-17T13:34:51;52.97;;;8.70;;
8474;SDS011;4274;52.012;8.448;2023-08-17T13:37:16;54.77;;;8.73;;
8474;SDS011;4274;52.012;8.448;2023-08-17T13:39:42;51.20;;;7.60;;
8474;SDS011;4274;52.012;8.448;2023-08-17T13:42:08;50.57;;;7.10;;
8474;SDS011;4274;52.012;8.448;2023-08-17T13:44:34;50.93;;;8.47;;
8474;SDS011;4274;52.012;8.448;2023-08-17T13:46:59;50.40;;;6.53;;
8474;SDS011;4274;52.012;8.448;2023-08-17T13:49:25;47.57;;;6.83;;
8474;SDS011;4274;52.012;8.448;2023-08-17T13:51:52;51.37;;;7.17;;
8474;SDS011;4274;52.012;8.448;2023-08-17T13:54:18;53.30;;;7.40;;
8474;SDS011;4274;52.012;8.448;2023-08-17T13:56:44;56.83;;;7.60;;
8474;SDS011;4274;52.012;8.448;2023-08-17T13:59:10;55.23;;;6.93;;
8474;SDS011;4274;52.012;8.448;2023-08-17T14:01:35;50.43;;;6.50;;
8474;SDS011;4274;52.012;8.448;2023-08-17T14:04:01;52.67;;;6.43;;
8474;SDS011;4274;52.012;8.448;2023-08-17T14:06:28;51.90;;;6.70;;
8474;SDS011;4274;52.012;8.448;2023-08-17T14:08:54;51.07;;;6.90;;
8474;SDS011;4274;52.012;8.448;2023-08-17T14:11:19;56.20;;;6.90;;
8474;SDS011;4274;52.012;8.448;2023-08-17T14:13:45;50.27;;;6.83;;
8474;SDS011;4274;52.012;8.448;2023-08-17T14:16:11;51.60;;;6.77;;
8474;SDS011;4274;52.012;8.448;2023-08-17T14:18:36;53.70;;;7.10;;
8474;SDS011;4274;52.012;8.448;2023-08-17T14:21:02;50.90;;;6.37;;
8474;SDS011;4274;52.012;8.448;2023-08-17T14:23:27;51.47;;;6.30;;
8474;SDS011;4274;52.012;8.448;2023-08-17T14:25:53;49.37;;;6.47;;
8474;SDS011;4274;52.012;8.448;2023-08-17T14:28:19;52.10;;;7.00;;
8474;SDS011;4274;52.012;8.448;2023-08-17T14:30:44;56.83;;;6.83;;
8474;SDS011;4274;52.012;8.448;2023-08-17T14:33:10;54.37;;;6.50;;
8474;SDS011;4274;52.012;8.448;2023-08-17T14:35:37;54.43;;;7.83;;
8474;SDS011;4274;52.012;8.448;2023-08-17T14:38:03;54.27;;;8.10;;
8474;SDS011;4274;52.012;8.448;2023-08-17T14:40:28;49.50;;;6.60;;
8474;SDS011;4274;52.012;8.448;2023-08-17T14:42:54;52.40;;;7.60;;
8474;SDS011;4274;52.012;8.448;2023-08-17T14:45:20;53.10;;;6.80;;
8474;SDS011;4274;52.012;8.448;2023-08-17T14:47:45;54.27;;;8.47;;
8474;SDS011;4274;52.012;8.448;2023-08-17T14:50:11;52.57;;;7.60;;
8474;SDS011;4274;52.012;8.448;2023-08-17T14:52:39;54.03;;;8.30;;
8474;SDS011;4274;52.012;8.448;2023-08-17T14:55:04;55.43;;;7.87;;
8474;SDS011;4274;52.012;8.448;2023-08-17T14:57:30;50.60;;;6.60;;
8474;SDS011;4274;52.012;8.448;2023-08-17T14:59:56;56.43;;;7.33;;
8474;SDS011;4274;52.012;8.448;2023-08-17T15:02:21;53.07;;;7.60;;